sensor_id;sensor_type;location;lat;lon;timestamp;temperature;humidity
36552;DHT22;22559;54.176;12.102;2023-11-22T00:01:10;2.70;99.90
36552;DHT22;22559;54.176;12.102;2023-11-22T00:03:36;2.70;99.90
36552;DHT22;22559;54.176;12.102;2023-11-22T00:06:02;2.70;99.90
36552;DHT22;22559;54.176;12.102;2023-11-22T00:08:27;2.60;99.90
36552;DHT22;22559;54.176;12.102;2023-11-22T00:10:54;2.60;99.90
36552;DHT22;22559;54.176;12.102;2023-11-22T00:13:20;2.60;99.90
36552;DHT22;22559;54.176;12.102;2023-11-22T00:15:45;2.40;99.90
36552;DHT22;22559;54.176;12.102;2023-11-22T00:18:11;2.30;99.90
36552;DHT22;22559;54.176;12.102;2023-11-22T00:20:37;2.20;99.90
36552;DHT22;22559;54.176;12.102;2023-11-22T00:23:02;2.10;99.90
36552;DHT22;22559;54.176;12.102;2023-11-22T00:25:31;2.00;99.90
36552;DHT22;22559;54.176;12.102;2023-11-22T00:27:58;1.90;99.90
36552;DHT22;22559;54.176;12.102;2023-11-22T00:30:23;1.70;99.90
36552;DHT22;22559;54.176;12.102;2023-11-22T00:32:49;1.60;99.90
36552;DHT22;22559;54.176;12.102;2023-11-22T00:35:14;1.50;99.90
36552;DHT22;22559;54.176;12.102;2023-11-22T00:37:40;1.50;99.90
36552;DHT22;22559;54.176;12.102;2023-11-22T00:40:06;1.40;99.90
36552;DHT22;22559;54.176;12.102;2023-11-22T00:42:41;1.60;99.90
36552;DHT22;22559;54.176;12.102;2023-11-22T00:45:10;2.20;99.90
36552;DHT22;22559;54.176;12.102;2023-11-22T00:47:36;2.40;99.90
36552;DHT22;22559;54.176;12.102;2023-11-22T00:50:02;2.40;99.90
36552;DHT22;22559;54.176;12.102;2023-11-22T00:52:32;2.50;99.90
36552;DHT22;22559;54.176;12.102;2023-11-22T00:54:58;2.60;99.90
36552;DHT22;22559;54.176;12.102;2023-11-22T00:57:23;2.60;99.90
36552;DHT22;22559;54.176;12.102;2023-11-22T00:59:49;2.60;99.90
36552;DHT22;22559;54.176;12.102;2023-11-22T01:02:15;2.60;99.90
36552;DHT22;22559;54.176;12.102;2023-11-22T01:04:41;2.60;99.90
36552;DHT22;22559;54.176;12.102;2023-11-22T01:07:07;2.60;99.90
36552;DHT22;22559;54.176;12.102;2023-11-22T01:09:35;2.60;99.90
36552;DHT22;22559;54.176;12.102;2023-11-22T01:12:01;2.70;99.90
36552;DHT22;22559;54.176;12.102;2023-11-22T01:14:27;2.60;99.90
36552;DHT22;22559;54.176;12.102;2023-11-22T01:16:53;2.80;99.90
36552;DHT22;22559;54.176;12.102;2023-11-22T01:19:22;2.80;99.90
36552;DHT22;22559;54.176;12.102;2023-11-22T01:21:47;2.90;99.90
36552;DHT22;22559;54.176;12.102;2023-11-22T01:24:13;2.90;99.90
36552;DHT22;22559;54.176;12.102;2023-11-22T01:26:39;2.90;99.90
36552;DHT22;22559;54.176;12.102;2023-11-22T01:29:05;2.90;99.90
36552;DHT22;22559;54.176;12.102;2023-11-22T01:31:30;2.90;99.90
36552;DHT22;22559;54.176;12.102;2023-11-22T01:33:58;2.90;99.90
36552;DHT22;22559;54.176;12.102;2023-11-22T01:36:24;2.90;99.90
36552;DHT22;22559;54.176;12.102;2023-11-22T01:38:51;2.90;99.90
36552;DHT22;22559;54.176;12.102;2023-11-22T01:41:17;2.90;99.90
36552;DHT22;22559;54.176;12.102;2023-11-22T01:43:43;2.90;99.90
36552;DHT22;22559;54.176;12.102;2023-11-22T01:46:09;2.90;99.90
36552;DHT22;22559;54.176;12.102;2023-11-22T01:48:36;2.90;99.90
36552;DHT22;22559;54.176;12.102;2023-11-22T01:51:04;2.90;99.90
36552;DHT22;22559;54.176;12.102;2023-11-22T01:53:31;2.90;99.90
36552;DHT22;22559;54.176;12.102;2023-11-22T01:55:57;2.90;99.90
36552;DHT22;22559;54.176;12.102;2023-11-22T01:58:23;2.90;99.90
36552;DHT22;22559;54.176;12.102;2023-11-22T02:00:52;2.90;99.90
36552;DHT22;22559;54.176;12.102;2023-11-22T02:03:18;2.90;99.90
36552;DHT22;22559;54.176;12.102;2023-11-22T02:05:44;2.80;99.90
36552;DHT22;22559;54.176;12.102;2023-11-22T02:08:11;2.80;99.90
36552;DHT22;22559;54.176;12.102;2023-11-22T02:10:37;2.80;99.90
36552;DHT22;22559;54.176;12.102;2023-11-22T02:13:05;2.70;99.90
36552;DHT22;22559;54.176;12.102;2023-11-22T02:15:35;2.70;99.90
36552;DHT22;22559;54.176;12.102;2023-11-22T02:18:04;2.70;99.90
36552;DHT22;22559;54.176;12.102;2023-11-22T02:20:32;2.60;99.90
36552;DHT22;22559;54.176;12.102;2023-11-22T02:23:03;2.60;99.90
36552;DHT22;22559;54.176;12.102;2023-11-22T02:25:32;2.50;99.90
36552;DHT22;22559;54.176;12.102;2023-11-22T02:27:59;2.50;99.90
36552;DHT22;22559;54.176;12.102;2023-11-22T02:30:25;2.50;99.90
36552;DHT22;22559;54.176;12.102;2023-11-22T02:32:51;2.50;99.90
36552;DHT22;22559;54.176;12.102;2023-11-22T02:35:16;2.50;99.90
36552;DHT22;22559;54.176;12.102;2023-11-22T02:37:43;2.50;99.90
36552;DHT22;22559;54.176;12.102;2023-11-22T02:40:21;2.60;99.90
36552;DHT22;22559;54.176;12.102;2023-11-22T02:42:51;2.60;99.90
36552;DHT22;22559;54.176;12.102;2023-11-22T02:45:18;2.60;99.90
36552;DHT22;22559;54.176;12.102;2023-11-22T02:47:44;2.60;99.90
36552;DHT22;22559;54.176;12.102;2023-11-22T02:50:10;2.60;99.90
36552;DHT22;22559;54.176;12.102;2023-11-22T02:52:37;2.50;99.90
36552;DHT22;22559;54.176;12.102;2023-11-22T02:55:03;2.40;99.90
36552;DHT22;22559;54.176;12.102;2023-11-22T02:57:30;2.30;99.90
36552;DHT22;22559;54.176;12.102;2023-11-22T02:59:57;2.30;99.90
36552;DHT22;22559;54.176;12.102;2023-11-22T03:02:23;2.30;99.90
36552;DHT22;22559;54.176;12.102;2023-11-22T03:04:51;2.40;99.90
36552;DHT22;22559;54.176;12.102;2023-11-22T03:07:17;2.40;99.90
36552;DHT22;22559;54.176;12.102;2023-11-22T03:09:43;2.30;99.90
36552;DHT22;22559;54.176;12.102;2023-11-22T03:12:11;2.40;99.90
36552;DHT22;22559;54.176;12.102;2023-11-22T03:14:38;2.40;99.90
36552;DHT22;22559;54.176;12.102;2023-11-22T03:17:05;2.40;99.90
36552;DHT22;22559;54.176;12.102;2023-11-22T03:19:31;2.40;99.90
36552;DHT22;22559;54.176;12.102;2023-11-22T03:21:59;2.30;99.90
36552;DHT22;22559;54.176;12.102;2023-11-22T03:24:25;2.20;99.90
36552;DHT22;22559;54.176;12.102;2023-11-22T03:26:51;2.20;99.90
36552;DHT22;22559;54.176;12.102;2023-11-22T03:29:18;2.10;99.90
36552;DHT22;22559;54.176;12.102;2023-11-22T03:31:44;1.90;99.90
36552;DHT22;22559;54.176;12.102;2023-11-22T03:34:09;1.90;99.90
36552;DHT22;22559;54.176;12.102;2023-11-22T03:36:35;2.00;99.90
36552;DHT22;22559;54.176;12.102;2023-11-22T03:39:02;1.80;99.90
36552;DHT22;22559;54.176;12.102;2023-11-22T03:41:28;1.70;99.90
36552;DHT22;22559;54.176;12.102;2023-11-22T03:43:53;1.50;99.90
36552;DHT22;22559;54.176;12.102;2023-11-22T03:46:19;1.40;99.90
36552;DHT22;22559;54.176;12.102;2023-11-22T03:48:45;1.50;99.90
36552;DHT22;22559;54.176;12.102;2023-11-22T03:51:10;1.50;99.90
36552;DHT22;22559;54.176;12.102;2023-11-22T03:53:37;1.40;99.90
36552;DHT22;22559;54.176;12.102;2023-11-22T03:56:02;1.30;99.90
36552;DHT22;22559;54.176;12.102;2023-11-22T03:58:28;1.20;99.90
36552;DHT22;22559;54.176;12.102;2023-11-22T04:00:54;1.10;99.90
36552;DHT22;22559;54.176;12.102;2023-11-22T04:03:20;1.00;99.90
36552;DHT22;22559;54.176;12.102;2023-11-22T04:05:46;0.90;99.90
36552;DHT22;22559;54.176;12.102;2023-11-22T04:08:11;0.90;99.90
36552;DHT22;22559;54.176;12.102;2023-11-22T04:10:37;0.90;99.90
36552;DHT22;22559;54.176;12.102;2023-11-22T04:13:03;0.80;99.90
36552;DHT22;22559;54.176;12.102;2023-11-22T04:15:28;0.80;99.90
36552;DHT22;22559;54.176;12.102;2023-11-22T04:17:54;0.90;99.90
36552;DHT22;22559;54.176;12.102;2023-11-22T04:20:20;1.10;99.90
36552;DHT22;22559;54.176;12.102;2023-11-22T04:22:46;1.10;99.90
36552;DHT22;22559;54.176;12.102;2023-11-22T04:25:12;1.10;99.90
36552;DHT22;22559;54.176;12.102;2023-11-22T04:27:41;1.20;99.90
36552;DHT22;22559;54.176;12.102;2023-11-22T04:30:08;1.20;99.90
36552;DHT22;22559;54.176;12.102;2023-11-22T04:32:38;1.30;99.90
36552;DHT22;22559;54.176;12.102;2023-11-22T04:35:05;1.30;99.90
36552;DHT22;22559;54.176;12.102;2023-11-22T04:37:31;1.20;99.90
36552;DHT22;22559;54.176;12.102;2023-11-22T04:39:58;1.20;99.90
36552;DHT22;22559;54.176;12.102;2023-11-22T04:42:24;1.10;99.90
36552;DHT22;22559;54.176;12.102;2023-11-22T04:44:50;1.10;99.90
36552;DHT22;22559;54.176;12.102;2023-11-22T04:47:15;1.10;99.90
36552;DHT22;22559;54.176;12.102;2023-11-22T04:49:41;1.10;99.90
36552;DHT22;22559;54.176;12.102;2023-11-22T04:52:06;1.20;99.90
36552;DHT22;22559;54.176;12.102;2023-11-22T04:54:33;1.30;99.90
36552;DHT22;22559;54.176;12.102;2023-11-22T04:56:59;1.40;99.90
36552;DHT22;22559;54.176;12.102;2023-11-22T04:59:25;1.40;99.90
36552;DHT22;22559;54.176;12.102;2023-11-22T05:01:50;1.50;99.90
36552;DHT22;22559;54.176;12.102;2023-11-22T05:04:16;1.60;99.90
36552;DHT22;22559;54.176;12.102;2023-11-22T05:06:43;1.70;99.90
36552;DHT22;22559;54.176;12.102;2023-11-22T05:09:09;1.70;99.90
36552;DHT22;22559;54.176;12.102;2023-11-22T05:11:36;1.80;99.90
36552;DHT22;22559;54.176;12.102;2023-11-22T05:14:02;1.90;99.90
36552;DHT22;22559;54.176;12.102;2023-11-22T05:16:27;1.90;99.90
36552;DHT22;22559;54.176;12.102;2023-11-22T05:18:53;1.90;99.90
36552;DHT22;22559;54.176;12.102;2023-11-22T05:21:19;1.90;99.90
36552;DHT22;22559;54.176;12.102;2023-11-22T05:23:44;1.90;99.90
36552;DHT22;22559;54.176;12.102;2023-11-22T05:26:10;1.80;99.90
36552;DHT22;22559;54.176;12.102;2023-11-22T05:28:36;1.80;99.90
36552;DHT22;22559;54.176;12.102;2023-11-22T05:31:01;1.70;99.90
36552;DHT22;22559;54.176;12.102;2023-11-22T05:33:27;1.80;99.90
36552;DHT22;22559;54.176;12.102;2023-11-22T05:35:53;1.70;99.90
36552;DHT22;22559;54.176;12.102;2023-11-22T05:38:19;1.80;99.90
36552;DHT22;22559;54.176;12.102;2023-11-22T05:40:44;1.80;99.90
36552;DHT22;22559;54.176;12.102;2023-11-22T05:43:10;1.80;99.90
36552;DHT22;22559;54.176;12.102;2023-11-22T05:45:36;1.90;99.90
36552;DHT22;22559;54.176;12.102;2023-11-22T05:48:01;1.80;99.90
36552;DHT22;22559;54.176;12.102;2023-11-22T05:50:27;1.80;99.90
36552;DHT22;22559;54.176;12.102;2023-11-22T05:52:53;1.80;99.90
36552;DHT22;22559;54.176;12.102;2023-11-22T05:55:18;1.80;99.90
36552;DHT22;22559;54.176;12.102;2023-11-22T05:57:44;1.90;99.90
36552;DHT22;22559;54.176;12.102;2023-11-22T06:00:10;1.90;99.90
36552;DHT22;22559;54.176;12.102;2023-11-22T06:02:36;1.90;99.90
36552;DHT22;22559;54.176;12.102;2023-11-22T06:05:04;1.90;99.90
36552;DHT22;22559;54.176;12.102;2023-11-22T06:07:31;1.90;99.90
36552;DHT22;22559;54.176;12.102;2023-11-22T06:09:57;1.90;99.90
36552;DHT22;22559;54.176;12.102;2023-11-22T06:12:23;1.90;99.90
36552;DHT22;22559;54.176;12.102;2023-11-22T06:14:48;1.80;99.90
36552;DHT22;22559;54.176;12.102;2023-11-22T06:17:14;1.80;99.90
36552;DHT22;22559;54.176;12.102;2023-11-22T06:19:40;1.90;99.90
36552;DHT22;22559;54.176;12.102;2023-11-22T06:22:07;1.80;99.90
36552;DHT22;22559;54.176;12.102;2023-11-22T06:24:33;1.90;99.90
36552;DHT22;22559;54.176;12.102;2023-11-22T06:27:01;1.80;99.90
36552;DHT22;22559;54.176;12.102;2023-11-22T06:29:27;1.90;99.90
36552;DHT22;22559;54.176;12.102;2023-11-22T06:31:52;1.90;99.90
36552;DHT22;22559;54.176;12.102;2023-11-22T06:34:19;1.80;99.90
36552;DHT22;22559;54.176;12.102;2023-11-22T06:36:44;1.80;99.90
36552;DHT22;22559;54.176;12.102;2023-11-22T06:39:10;1.90;99.90
36552;DHT22;22559;54.176;12.102;2023-11-22T06:41:41;1.90;99.90
36552;DHT22;22559;54.176;12.102;2023-11-22T06:44:07;1.90;99.90
36552;DHT22;22559;54.176;12.102;2023-11-22T06:46:33;2.00;99.90
36552;DHT22;22559;54.176;12.102;2023-11-22T06:48:58;2.10;99.90
36552;DHT22;22559;54.176;12.102;2023-11-22T06:51:24;2.00;99.90
36552;DHT22;22559;54.176;12.102;2023-11-22T06:53:50;2.00;99.90
36552;DHT22;22559;54.176;12.102;2023-11-22T06:56:17;2.10;99.90
36552;DHT22;22559;54.176;12.102;2023-11-22T06:58:43;2.00;99.90
36552;DHT22;22559;54.176;12.102;2023-11-22T07:01:09;2.00;99.90
36552;DHT22;22559;54.176;12.102;2023-11-22T07:03:36;2.10;99.90
36552;DHT22;22559;54.176;12.102;2023-11-22T07:06:03;2.10;99.90
36552;DHT22;22559;54.176;12.102;2023-11-22T07:08:29;2.20;99.90
36552;DHT22;22559;54.176;12.102;2023-11-22T07:10:56;2.20;99.90
36552;DHT22;22559;54.176;12.102;2023-11-22T07:13:22;2.30;99.90
36552;DHT22;22559;54.176;12.102;2023-11-22T07:15:48;2.40;99.90
36552;DHT22;22559;54.176;12.102;2023-11-22T07:18:14;2.60;99.90
36552;DHT22;22559;54.176;12.102;2023-11-22T07:20:39;2.70;99.90
36552;DHT22;22559;54.176;12.102;2023-11-22T07:23:05;2.80;99.90
36552;DHT22;22559;54.176;12.102;2023-11-22T07:25:31;2.80;99.90
36552;DHT22;22559;54.176;12.102;2023-11-22T07:27:57;2.90;99.90
36552;DHT22;22559;54.176;12.102;2023-11-22T07:30:24;3.00;99.90
36552;DHT22;22559;54.176;12.102;2023-11-22T07:32:52;3.00;99.90
36552;DHT22;22559;54.176;12.102;2023-11-22T07:35:18;3.10;99.90
36552;DHT22;22559;54.176;12.102;2023-11-22T07:37:47;3.10;99.90
36552;DHT22;22559;54.176;12.102;2023-11-22T07:40:14;3.20;99.90
36552;DHT22;22559;54.176;12.102;2023-11-22T07:42:40;3.20;99.90
36552;DHT22;22559;54.176;12.102;2023-11-22T07:45:07;3.50;99.90
36552;DHT22;22559;54.176;12.102;2023-11-22T07:47:32;3.60;99.90
36552;DHT22;22559;54.176;12.102;2023-11-22T07:49:58;3.70;99.90
36552;DHT22;22559;54.176;12.102;2023-11-22T07:52:24;3.70;99.90
36552;DHT22;22559;54.176;12.102;2023-11-22T07:54:58;3.80;99.90
36552;DHT22;22559;54.176;12.102;2023-11-22T07:57:24;3.80;99.90
36552;DHT22;22559;54.176;12.102;2023-11-22T07:59:50;3.80;99.90
36552;DHT22;22559;54.176;12.102;2023-11-22T08:02:20;4.00;99.90
36552;DHT22;22559;54.176;12.102;2023-11-22T08:04:45;4.20;99.90
36552;DHT22;22559;54.176;12.102;2023-11-22T08:07:13;4.40;99.90
36552;DHT22;22559;54.176;12.102;2023-11-22T08:09:43;4.50;99.90
36552;DHT22;22559;54.176;12.102;2023-11-22T08:12:09;4.50;99.90
36552;DHT22;22559;54.176;12.102;2023-11-22T08:14:37;4.50;99.90
36552;DHT22;22559;54.176;12.102;2023-11-22T08:17:03;4.70;99.90
36552;DHT22;22559;54.176;12.102;2023-11-22T08:19:29;4.80;99.90
36552;DHT22;22559;54.176;12.102;2023-11-22T08:21:55;4.90;99.90
36552;DHT22;22559;54.176;12.102;2023-11-22T08:24:20;5.00;99.90
36552;DHT22;22559;54.176;12.102;2023-11-22T08:26:46;5.00;99.90
36552;DHT22;22559;54.176;12.102;2023-11-22T08:29:12;5.10;99.90
36552;DHT22;22559;54.176;12.102;2023-11-22T08:31:37;5.00;99.90
36552;DHT22;22559;54.176;12.102;2023-11-22T08:34:03;5.10;99.90
36552;DHT22;22559;54.176;12.102;2023-11-22T08:36:32;5.10;99.90
36552;DHT22;22559;54.176;12.102;2023-11-22T08:39:00;5.10;99.90
36552;DHT22;22559;54.176;12.102;2023-11-22T08:41:27;5.00;99.90
36552;DHT22;22559;54.176;12.102;2023-11-22T08:43:55;5.00;99.90
36552;DHT22;22559;54.176;12.102;2023-11-22T08:46:20;4.90;99.90
36552;DHT22;22559;54.176;12.102;2023-11-22T08:48:47;4.90;99.90
36552;DHT22;22559;54.176;12.102;2023-11-22T08:51:12;4.90;99.90
36552;DHT22;22559;54.176;12.102;2023-11-22T08:53:38;5.00;99.90
36552;DHT22;22559;54.176;12.102;2023-11-22T08:56:04;5.00;99.90
36552;DHT22;22559;54.176;12.102;2023-11-22T08:58:31;5.10;99.90
36552;DHT22;22559;54.176;12.102;2023-11-22T09:00:57;5.10;99.90
36552;DHT22;22559;54.176;12.102;2023-11-22T09:03:25;5.20;99.90
36552;DHT22;22559;54.176;12.102;2023-11-22T09:05:52;5.20;99.90
36552;DHT22;22559;54.176;12.102;2023-11-22T09:08:19;5.20;99.90
36552;DHT22;22559;54.176;12.102;2023-11-22T09:10:46;5.20;99.90
36552;DHT22;22559;54.176;12.102;2023-11-22T09:13:12;5.10;99.90
36552;DHT22;22559;54.176;12.102;2023-11-22T09:15:42;5.00;99.90
36552;DHT22;22559;54.176;12.102;2023-11-22T09:18:10;4.90;99.90
36552;DHT22;22559;54.176;12.102;2023-11-22T09:20:35;4.90;99.90
36552;DHT22;22559;54.176;12.102;2023-11-22T09:23:01;4.90;99.90
36552;DHT22;22559;54.176;12.102;2023-11-22T09:25:27;4.90;99.90
36552;DHT22;22559;54.176;12.102;2023-11-22T09:27:57;4.90;99.90
36552;DHT22;22559;54.176;12.102;2023-11-22T09:30:31;4.90;99.90
36552;DHT22;22559;54.176;12.102;2023-11-22T09:33:04;4.80;99.90
36552;DHT22;22559;54.176;12.102;2023-11-22T09:35:30;4.80;99.90
36552;DHT22;22559;54.176;12.102;2023-11-22T09:37:59;4.80;99.90
36552;DHT22;22559;54.176;12.102;2023-11-22T09:40:26;4.80;99.90
36552;DHT22;22559;54.176;12.102;2023-11-22T09:42:55;4.80;99.90
36552;DHT22;22559;54.176;12.102;2023-11-22T09:45:21;4.80;99.90
36552;DHT22;22559;54.176;12.102;2023-11-22T09:47:47;4.80;99.90
36552;DHT22;22559;54.176;12.102;2023-11-22T09:50:39;4.70;99.90
36552;DHT22;22559;54.176;12.102;2023-11-22T09:53:19;4.70;99.90
36552;DHT22;22559;54.176;12.102;2023-11-22T09:55:47;4.70;99.90
36552;DHT22;22559;54.176;12.102;2023-11-22T09:58:13;4.70;99.90
36552;DHT22;22559;54.176;12.102;2023-11-22T10:00:41;4.70;99.90
36552;DHT22;22559;54.176;12.102;2023-11-22T10:03:07;4.80;99.90
36552;DHT22;22559;54.176;12.102;2023-11-22T10:05:33;4.80;99.90
36552;DHT22;22559;54.176;12.102;2023-11-22T10:07:59;4.80;99.90
36552;DHT22;22559;54.176;12.102;2023-11-22T10:10:26;4.80;99.90
36552;DHT22;22559;54.176;12.102;2023-11-22T10:12:55;4.90;99.90
36552;DHT22;22559;54.176;12.102;2023-11-22T10:15:22;4.90;99.90
36552;DHT22;22559;54.176;12.102;2023-11-22T10:18:00;5.00;99.90
36552;DHT22;22559;54.176;12.102;2023-11-22T10:20:39;5.10;99.90
36552;DHT22;22559;54.176;12.102;2023-11-22T10:23:17;5.20;99.90
36552;DHT22;22559;54.176;12.102;2023-11-22T10:25:51;5.20;99.90
36552;DHT22;22559;54.176;12.102;2023-11-22T10:28:18;5.30;99.90
36552;DHT22;22559;54.176;12.102;2023-11-22T10:30:49;5.30;99.90
36552;DHT22;22559;54.176;12.102;2023-11-22T10:33:15;5.50;99.90
36552;DHT22;22559;54.176;12.102;2023-11-22T10:35:49;5.50;99.90
36552;DHT22;22559;54.176;12.102;2023-11-22T10:38:20;5.60;99.90
36552;DHT22;22559;54.176;12.102;2023-11-22T10:40:46;5.60;99.90
36552;DHT22;22559;54.176;12.102;2023-11-22T10:43:14;5.70;99.90
36552;DHT22;22559;54.176;12.102;2023-11-22T10:45:44;5.70;99.90
36552;DHT22;22559;54.176;12.102;2023-11-22T10:48:14;5.70;99.90
36552;DHT22;22559;54.176;12.102;2023-11-22T10:50:47;5.80;99.90
36552;DHT22;22559;54.176;12.102;2023-11-22T10:53:16;5.80;99.90
36552;DHT22;22559;54.176;12.102;2023-11-22T10:55:46;5.80;99.90
36552;DHT22;22559;54.176;12.102;2023-11-22T10:58:14;5.80;99.90
36552;DHT22;22559;54.176;12.102;2023-11-22T11:00:42;5.80;99.90
36552;DHT22;22559;54.176;12.102;2023-11-22T11:03:17;5.80;99.90
36552;DHT22;22559;54.176;12.102;2023-11-22T11:05:50;5.80;99.90
36552;DHT22;22559;54.176;12.102;2023-11-22T11:08:17;6.10;99.90
36552;DHT22;22559;54.176;12.102;2023-11-22T11:10:46;6.20;99.90
36552;DHT22;22559;54.176;12.102;2023-11-22T11:13:12;6.20;99.90
36552;DHT22;22559;54.176;12.102;2023-11-22T11:15:40;6.30;99.90
36552;DHT22;22559;54.176;12.102;2023-11-22T11:18:07;6.40;99.90
36552;DHT22;22559;54.176;12.102;2023-11-22T11:21:08;6.50;99.90
36552;DHT22;22559;54.176;12.102;2023-11-22T11:23:39;6.40;99.90
36552;DHT22;22559;54.176;12.102;2023-11-22T11:26:20;6.00;99.90
36552;DHT22;22559;54.176;12.102;2023-11-22T11:28:49;5.80;99.90
36552;DHT22;22559;54.176;12.102;2023-11-22T11:31:15;5.70;99.90
36552;DHT22;22559;54.176;12.102;2023-11-22T11:36:28;5.30;99.90
36552;DHT22;22559;54.176;12.102;2023-11-22T11:38:55;5.20;99.90
36552;DHT22;22559;54.176;12.102;2023-11-22T11:41:30;5.20;99.90
36552;DHT22;22559;54.176;12.102;2023-11-22T11:43:58;5.20;99.90
36552;DHT22;22559;54.176;12.102;2023-11-22T11:46:25;5.20;99.90
36552;DHT22;22559;54.176;12.102;2023-11-22T11:48:54;5.10;99.90
36552;DHT22;22559;54.176;12.102;2023-11-22T11:51:23;5.10;99.90
36552;DHT22;22559;54.176;12.102;2023-11-22T11:53:49;5.10;99.90
36552;DHT22;22559;54.176;12.102;2023-11-22T11:56:15;5.10;99.90
36552;DHT22;22559;54.176;12.102;2023-11-22T11:58:42;5.10;99.90
36552;DHT22;22559;54.176;12.102;2023-11-22T12:01:18;5.10;99.90
36552;DHT22;22559;54.176;12.102;2023-11-22T12:03:47;5.10;99.90
36552;DHT22;22559;54.176;12.102;2023-11-22T12:06:17;5.00;99.90
36552;DHT22;22559;54.176;12.102;2023-11-22T12:08:46;5.00;99.90
36552;DHT22;22559;54.176;12.102;2023-11-22T12:11:13;5.00;99.90
36552;DHT22;22559;54.176;12.102;2023-11-22T12:13:39;4.90;99.90
36552;DHT22;22559;54.176;12.102;2023-11-22T12:16:08;4.90;99.90
36552;DHT22;22559;54.176;12.102;2023-11-22T12:18:43;4.90;99.90
36552;DHT22;22559;54.176;12.102;2023-11-22T12:21:09;4.90;99.90
36552;DHT22;22559;54.176;12.102;2023-11-22T12:23:39;4.90;99.90
36552;DHT22;22559;54.176;12.102;2023-11-22T12:26:10;4.90;99.90
36552;DHT22;22559;54.176;12.102;2023-11-22T12:28:37;4.90;99.90
36552;DHT22;22559;54.176;12.102;2023-11-22T12:31:12;4.80;99.90
36552;DHT22;22559;54.176;12.102;2023-11-22T12:33:40;4.80;99.90
36552;DHT22;22559;54.176;12.102;2023-11-22T12:36:07;4.70;99.90
36552;DHT22;22559;54.176;12.102;2023-11-22T12:38:37;4.70;99.90
36552;DHT22;22559;54.176;12.102;2023-11-22T12:41:05;4.80;99.90
36552;DHT22;22559;54.176;12.102;2023-11-22T12:43:32;4.70;99.90
36552;DHT22;22559;54.176;12.102;2023-11-22T12:46:05;4.70;99.90
36552;DHT22;22559;54.176;12.102;2023-11-22T12:48:32;4.70;99.90
36552;DHT22;22559;54.176;12.102;2023-11-22T12:50:59;4.70;99.90
36552;DHT22;22559;54.176;12.102;2023-11-22T12:53:26;4.70;99.90
36552;DHT22;22559;54.176;12.102;2023-11-22T12:55:54;4.70;99.90
36552;DHT22;22559;54.176;12.102;2023-11-22T12:58:21;4.80;99.90
36552;DHT22;22559;54.176;12.102;2023-11-22T13:00:49;4.80;99.90
36552;DHT22;22559;54.176;12.102;2023-11-22T13:03:15;4.80;99.90
36552;DHT22;22559;54.176;12.102;2023-11-22T13:05:42;4.70;99.90
36552;DHT22;22559;54.176;12.102;2023-11-22T13:08:09;4.70;99.90
36552;DHT22;22559;54.176;12.102;2023-11-22T13:10:46;4.60;99.90
36552;DHT22;22559;54.176;12.102;2023-11-22T13:13:13;4.60;99.90
36552;DHT22;22559;54.176;12.102;2023-11-22T13:15:39;4.60;99.90
36552;DHT22;22559;54.176;12.102;2023-11-22T13:18:06;4.60;99.90
36552;DHT22;22559;54.176;12.102;2023-11-22T13:20:33;4.60;99.90
36552;DHT22;22559;54.176;12.102;2023-11-22T13:23:00;4.60;99.90
36552;DHT22;22559;54.176;12.102;2023-11-22T13:25:26;4.50;99.90
36552;DHT22;22559;54.176;12.102;2023-11-22T13:27:52;4.50;99.90
36552;DHT22;22559;54.176;12.102;2023-11-22T13:30:19;4.50;99.90
36552;DHT22;22559;54.176;12.102;2023-11-22T13:32:54;4.50;99.90
36552;DHT22;22559;54.176;12.102;2023-11-22T13:35:26;4.50;99.90
36552;DHT22;22559;54.176;12.102;2023-11-22T13:37:57;4.50;99.90
36552;DHT22;22559;54.176;12.102;2023-11-22T13:40:23;4.40;99.90
36552;DHT22;22559;54.176;12.102;2023-11-22T13:42:51;4.40;99.90
36552;DHT22;22559;54.176;12.102;2023-11-22T13:45:20;4.40;99.90
36552;DHT22;22559;54.176;12.102;2023-11-22T13:47:54;4.40;99.90
36552;DHT22;22559;54.176;12.102;2023-11-22T13:50:34;4.40;99.90
36552;DHT22;22559;54.176;12.102;2023-11-22T13:53:01;4.40;99.90
36552;DHT22;22559;54.176;12.102;2023-11-22T13:55:27;4.40;99.90
36552;DHT22;22559;54.176;12.102;2023-11-22T13:57:54;4.40;99.90
36552;DHT22;22559;54.176;12.102;2023-11-22T14:00:22;4.30;99.90
36552;DHT22;22559;54.176;12.102;2023-11-22T14:02:50;4.30;99.90
36552;DHT22;22559;54.176;12.102;2023-11-22T14:05:26;4.30;99.90
36552;DHT22;22559;54.176;12.102;2023-11-22T14:07:52;4.30;99.90
36552;DHT22;22559;54.176;12.102;2023-11-22T14:10:19;4.30;99.90
36552;DHT22;22559;54.176;12.102;2023-11-22T14:12:50;4.30;99.90
36552;DHT22;22559;54.176;12.102;2023-11-22T14:15:17;4.30;99.90
36552;DHT22;22559;54.176;12.102;2023-11-22T14:17:43;4.30;99.90
36552;DHT22;22559;54.176;12.102;2023-11-22T14:20:10;4.30;99.90
36552;DHT22;22559;54.176;12.102;2023-11-22T14:22:37;4.20;99.90
36552;DHT22;22559;54.176;12.102;2023-11-22T14:25:03;4.30;99.90
36552;DHT22;22559;54.176;12.102;2023-11-22T14:27:32;4.20;99.90
36552;DHT22;22559;54.176;12.102;2023-11-22T14:29:59;4.20;99.90
36552;DHT22;22559;54.176;12.102;2023-11-22T14:32:25;4.20;99.90
36552;DHT22;22559;54.176;12.102;2023-11-22T14:34:51;4.20;99.90
36552;DHT22;22559;54.176;12.102;2023-11-22T14:37:18;4.20;99.90
36552;DHT22;22559;54.176;12.102;2023-11-22T14:39:45;4.20;99.90
36552;DHT22;22559;54.176;12.102;2023-11-22T14:42:10;4.20;99.90
36552;DHT22;22559;54.176;12.102;2023-11-22T14:44:37;4.20;99.90
36552;DHT22;22559;54.176;12.102;2023-11-22T14:47:03;4.20;99.90
36552;DHT22;22559;54.176;12.102;2023-11-22T14:49:34;4.20;99.90
36552;DHT22;22559;54.176;12.102;2023-11-22T14:52:00;4.20;99.90
36552;DHT22;22559;54.176;12.102;2023-11-22T14:54:27;4.20;99.90
36552;DHT22;22559;54.176;12.102;2023-11-22T14:56:53;4.20;99.90
36552;DHT22;22559;54.176;12.102;2023-11-22T14:59:21;4.20;99.90
36552;DHT22;22559;54.176;12.102;2023-11-22T15:01:47;4.20;99.90
36552;DHT22;22559;54.176;12.102;2023-11-22T15:04:13;4.20;99.90
36552;DHT22;22559;54.176;12.102;2023-11-22T15:06:41;4.20;99.90
36552;DHT22;22559;54.176;12.102;2023-11-22T15:09:09;4.10;99.90
36552;DHT22;22559;54.176;12.102;2023-11-22T15:11:38;4.10;99.90
36552;DHT22;22559;54.176;12.102;2023-11-22T15:14:04;4.10;99.90
36552;DHT22;22559;54.176;12.102;2023-11-22T15:16:30;4.10;99.90
36552;DHT22;22559;54.176;12.102;2023-11-22T15:18:57;4.10;99.90
36552;DHT22;22559;54.176;12.102;2023-11-22T15:21:25;4.10;99.90
36552;DHT22;22559;54.176;12.102;2023-11-22T15:23:50;4.00;99.90
36552;DHT22;22559;54.176;12.102;2023-11-22T15:26:16;4.00;99.90
36552;DHT22;22559;54.176;12.102;2023-11-22T15:28:42;4.00;99.90
36552;DHT22;22559;54.176;12.102;2023-11-22T15:31:08;4.00;99.90
36552;DHT22;22559;54.176;12.102;2023-11-22T15:33:34;4.00;99.90